sensor_id;sensor_type;location;lat;lon;timestamp;P1;durP1;ratioP1;P2;durP2;ratioP2
3795;SDS011;1913;50.660;7.834;2023-03-23T00:00:06;3.17;;;1.50;;
3795;SDS011;1913;50.660;7.834;2023-03-23T00:02:33;3.27;;;1.33;;
3795;SDS011;1913;50.660;7.834;2023-03-23T00:05:04;4.40;;;1.60;;
3795;SDS011;1913;50.660;7.834;2023-03-23T00:07:32;5.07;;;1.80;;
3795;SDS011;1913;50.660;7.834;2023-03-23T00:09:58;3.63;;;1.60;;
3795;SDS011;1913;50.660;7.834;2023-03-23T00:12:28;6.10;;;1.53;;
3795;SDS011;1913;50.660;7.834;2023-03-23T00:15:06;4.17;;;1.57;;
3795;SDS011;1913;50.660;7.834;2023-03-23T00:17:33;3.67;;;1.50;;
3795;SDS011;1913;50.660;7.834;2023-03-23T00:19:59;2.80;;;1.80;;
3795;SDS011;1913;50.660;7.834;2023-03-23T00:22:26;2.30;;;1.30;;
3795;SDS011;1913;50.660;7.834;2023-03-23T00:24:52;1.97;;;1.73;;
3795;SDS011;1913;50.660;7.834;2023-03-23T00:27:18;2.67;;;1.60;;
3795;SDS011;1913;50.660;7.834;2023-03-23T00:29:47;2.70;;;1.53;;
3795;SDS011;1913;50.660;7.834;2023-03-23T00:32:13;2.10;;;1.70;;
3795;SDS011;1913;50.660;7.834;2023-03-23T00:34:40;1.80;;;1.40;;
3795;SDS011;1913;50.660;7.834;2023-03-23T00:37:10;1.97;;;1.53;;
3795;SDS011;1913;50.660;7.834;2023-03-23T00:39:36;5.63;;;1.70;;
3795;SDS011;1913;50.660;7.834;2023-03-23T00:42:03;2.40;;;1.53;;
3795;SDS011;1913;50.660;7.834;2023-03-23T00:44:30;2.47;;;1.60;;
3795;SDS011;1913;50.660;7.834;2023-03-23T00:46:58;3.97;;;1.50;;
3795;SDS011;1913;50.660;7.834;2023-03-23T00:49:24;4.23;;;1.40;;
3795;SDS011;1913;50.660;7.834;2023-03-23T00:51:51;2.60;;;1.60;;
3795;SDS011;1913;50.660;7.834;2023-03-23T00:54:18;1.67;;;1.30;;
3795;SDS011;1913;50.660;7.834;2023-03-23T00:56:44;2.30;;;1.50;;
3795;SDS011;1913;50.660;7.834;2023-03-23T00:59:10;3.00;;;1.50;;
3795;SDS011;1913;50.660;7.834;2023-03-23T01:01:36;7.00;;;1.60;;
3795;SDS011;1913;50.660;7.834;2023-03-23T01:04:02;1.83;;;1.40;;
3795;SDS011;1913;50.660;7.834;2023-03-23T01:06:29;6.03;;;1.63;;
3795;SDS011;1913;50.660;7.834;2023-03-23T01:09:04;4.70;;;1.57;;
3795;SDS011;1913;50.660;7.834;2023-03-23T01:11:33;2.80;;;1.90;;
3795;SDS011;1913;50.660;7.834;2023-03-23T01:13:59;1.60;;;1.50;;
3795;SDS011;1913;50.660;7.834;2023-03-23T01:16:25;8.33;;;2.40;;
3795;SDS011;1913;50.660;7.834;2023-03-23T01:18:50;2.27;;;1.60;;
3795;SDS011;1913;50.660;7.834;2023-03-23T01:21:17;1.67;;;1.43;;
3795;SDS011;1913;50.660;7.834;2023-03-23T01:23:44;3.83;;;1.93;;
3795;SDS011;1913;50.660;7.834;2023-03-23T01:26:11;2.90;;;1.70;;
3795;SDS011;1913;50.660;7.834;2023-03-23T01:28:41;2.80;;;1.80;;
3795;SDS011;1913;50.660;7.834;2023-03-23T01:31:08;2.23;;;2.00;;
3795;SDS011;1913;50.660;7.834;2023-03-23T01:33:37;3.63;;;2.10;;
3795;SDS011;1913;50.660;7.834;2023-03-23T01:36:07;3.80;;;2.00;;
3795;SDS011;1913;50.660;7.834;2023-03-23T01:38:37;5.10;;;2.30;;
3795;SDS011;1913;50.660;7.834;2023-03-23T01:41:03;6.70;;;1.90;;
3795;SDS011;1913;50.660;7.834;2023-03-23T01:43:29;2.40;;;2.00;;
3795;SDS011;1913;50.660;7.834;2023-03-23T01:45:55;2.87;;;1.83;;
3795;SDS011;1913;50.660;7.834;2023-03-23T01:48:32;4.23;;;1.97;;
3795;SDS011;1913;50.660;7.834;2023-03-23T01:51:08;6.80;;;2.40;;
3795;SDS011;1913;50.660;7.834;2023-03-23T01:53:48;3.10;;;2.10;;
3795;SDS011;1913;50.660;7.834;2023-03-23T01:56:28;3.20;;;1.80;;
3795;SDS011;1913;50.660;7.834;2023-03-23T01:59:03;3.93;;;2.30;;
3795;SDS011;1913;50.660;7.834;2023-03-23T02:01:29;4.73;;;2.27;;
3795;SDS011;1913;50.660;7.834;2023-03-23T02:03:55;4.23;;;2.40;;
3795;SDS011;1913;50.660;7.834;2023-03-23T02:06:22;5.50;;;2.43;;
3795;SDS011;1913;50.660;7.834;2023-03-23T02:08:48;3.10;;;2.70;;
3795;SDS011;1913;50.660;7.834;2023-03-23T02:11:16;3.63;;;2.30;;
3795;SDS011;1913;50.660;7.834;2023-03-23T02:13:43;2.80;;;2.50;;
3795;SDS011;1913;50.660;7.834;2023-03-23T02:27:10;3.70;;;2.27;;
3795;SDS011;1913;50.660;7.834;2023-03-23T02:35:00;3.30;;;1.90;;
3795;SDS011;1913;50.660;7.834;2023-03-23T02:37:36;3.23;;;2.30;;
3795;SDS011;1913;50.660;7.834;2023-03-23T02:40:17;3.00;;;2.00;;
3795;SDS011;1913;50.660;7.834;2023-03-23T02:42:48;4.23;;;2.00;;
3795;SDS011;1913;50.660;7.834;2023-03-23T02:45:17;3.40;;;2.03;;
3795;SDS011;1913;50.660;7.834;2023-03-23T02:47:45;5.40;;;1.80;;
3795;SDS011;1913;50.660;7.834;2023-03-23T02:50:13;3.00;;;2.00;;
3795;SDS011;1913;50.660;7.834;2023-03-23T02:52:41;5.23;;;2.13;;
3795;SDS011;1913;50.660;7.834;2023-03-23T02:55:09;4.03;;;2.10;;
3795;SDS011;1913;50.660;7.834;2023-03-23T02:57:36;2.37;;;1.93;;
3795;SDS011;1913;50.660;7.834;2023-03-23T03:00:04;2.83;;;1.90;;
3795;SDS011;1913;50.660;7.834;2023-03-23T03:02:35;2.80;;;2.10;;
3795;SDS011;1913;50.660;7.834;2023-03-23T03:05:18;4.23;;;2.10;;
3795;SDS011;1913;50.660;7.834;2023-03-23T03:10:29;3.30;;;1.90;;
3795;SDS011;1913;50.660;7.834;2023-03-23T03:13:03;2.10;;;1.90;;
3795;SDS011;1913;50.660;7.834;2023-03-23T03:15:42;3.10;;;1.80;;
3795;SDS011;1913;50.660;7.834;2023-03-23T03:18:21;6.60;;;2.00;;
3795;SDS011;1913;50.660;7.834;2023-03-23T03:20:58;2.23;;;1.97;;
3795;SDS011;1913;50.660;7.834;2023-03-23T03:23:27;1.60;;;1.50;;
3795;SDS011;1913;50.660;7.834;2023-03-23T03:25:54;2.57;;;2.00;;
3795;SDS011;1913;50.660;7.834;2023-03-23T03:28:22;2.70;;;1.90;;
3795;SDS011;1913;50.660;7.834;2023-03-23T03:30:54;2.37;;;1.83;;
3795;SDS011;1913;50.660;7.834;2023-03-23T03:33:25;2.57;;;2.17;;
3795;SDS011;1913;50.660;7.834;2023-03-23T03:35:53;3.80;;;2.60;;
3795;SDS011;1913;50.660;7.834;2023-03-23T03:38:20;2.70;;;2.20;;
3795;SDS011;1913;50.660;7.834;2023-03-23T03:40:46;4.30;;;2.50;;
3795;SDS011;1913;50.660;7.834;2023-03-23T03:43:12;5.83;;;2.20;;
3795;SDS011;1913;50.660;7.834;2023-03-23T03:45:37;7.23;;;2.50;;
3795;SDS011;1913;50.660;7.834;2023-03-23T03:48:03;7.77;;;2.63;;
3795;SDS011;1913;50.660;7.834;2023-03-23T03:50:28;3.27;;;2.27;;
3795;SDS011;1913;50.660;7.834;2023-03-23T03:52:54;2.63;;;2.30;;
3795;SDS011;1913;50.660;7.834;2023-03-23T03:55:19;4.67;;;2.70;;
3795;SDS011;1913;50.660;7.834;2023-03-23T03:57:45;8.10;;;2.70;;
3795;SDS011;1913;50.660;7.834;2023-03-23T04:00:11;4.20;;;2.50;;
3795;SDS011;1913;50.660;7.834;2023-03-23T04:02:43;3.97;;;2.40;;
3795;SDS011;1913;50.660;7.834;2023-03-23T04:05:19;3.30;;;2.63;;
3795;SDS011;1913;50.660;7.834;2023-03-23T04:07:45;4.47;;;2.90;;
3795;SDS011;1913;50.660;7.834;2023-03-23T04:10:14;3.33;;;2.60;;
3795;SDS011;1913;50.660;7.834;2023-03-23T04:12:40;4.10;;;2.80;;
3795;SDS011;1913;50.660;7.834;2023-03-23T04:15:05;2.57;;;2.37;;
3795;SDS011;1913;50.660;7.834;2023-03-23T04:17:32;3.83;;;3.00;;
3795;SDS011;1913;50.660;7.834;2023-03-23T04:19:59;4.00;;;2.90;;
3795;SDS011;1913;50.660;7.834;2023-03-23T04:22:25;4.57;;;2.80;;
3795;SDS011;1913;50.660;7.834;2023-03-23T04:24:58;5.03;;;2.80;;
3795;SDS011;1913;50.660;7.834;2023-03-23T04:27:27;6.57;;;2.90;;
3795;SDS011;1913;50.660;7.834;2023-03-23T04:29:56;5.13;;;2.73;;
3795;SDS011;1913;50.660;7.834;2023-03-23T04:32:24;5.30;;;2.80;;
3795;SDS011;1913;50.660;7.834;2023-03-23T04:34:57;3.90;;;2.60;;
3795;SDS011;1913;50.660;7.834;2023-03-23T04:37:25;3.20;;;2.70;;
3795;SDS011;1913;50.660;7.834;2023-03-23T04:39:53;4.20;;;2.73;;
3795;SDS011;1913;50.660;7.834;2023-03-23T04:42:26;4.63;;;2.57;;
3795;SDS011;1913;50.660;7.834;2023-03-23T04:44:56;3.70;;;2.80;;
3795;SDS011;1913;50.660;7.834;2023-03-23T04:47:22;4.30;;;2.70;;
3795;SDS011;1913;50.660;7.834;2023-03-23T04:49:48;2.73;;;2.40;;
3795;SDS011;1913;50.660;7.834;2023-03-23T04:52:13;5.10;;;2.63;;
3795;SDS011;1913;50.660;7.834;2023-03-23T04:54:39;5.20;;;2.97;;
3795;SDS011;1913;50.660;7.834;2023-03-23T04:57:05;3.00;;;2.60;;
3795;SDS011;1913;50.660;7.834;2023-03-23T04:59:30;4.73;;;2.50;;
3795;SDS011;1913;50.660;7.834;2023-03-23T05:01:56;4.97;;;3.10;;
3795;SDS011;1913;50.660;7.834;2023-03-23T05:04:22;6.20;;;2.80;;
3795;SDS011;1913;50.660;7.834;2023-03-23T05:06:50;4.20;;;2.90;;
3795;SDS011;1913;50.660;7.834;2023-03-23T05:09:16;5.70;;;2.87;;
3795;SDS011;1913;50.660;7.834;2023-03-23T05:11:42;5.37;;;2.93;;
3795;SDS011;1913;50.660;7.834;2023-03-23T05:14:07;4.53;;;3.10;;
3795;SDS011;1913;50.660;7.834;2023-03-23T05:16:33;3.13;;;2.83;;
3795;SDS011;1913;50.660;7.834;2023-03-23T05:19:01;8.30;;;2.93;;
3795;SDS011;1913;50.660;7.834;2023-03-23T05:21:30;4.03;;;2.53;;
3795;SDS011;1913;50.660;7.834;2023-03-23T05:23:56;3.17;;;2.87;;
3795;SDS011;1913;50.660;7.834;2023-03-23T05:26:26;9.90;;;3.17;;
3795;SDS011;1913;50.660;7.834;2023-03-23T05:28:57;4.33;;;2.93;;
3795;SDS011;1913;50.660;7.834;2023-03-23T05:31:24;4.20;;;3.13;;
3795;SDS011;1913;50.660;7.834;2023-03-23T05:33:50;4.70;;;3.00;;
3795;SDS011;1913;50.660;7.834;2023-03-23T05:36:16;3.23;;;2.93;;
3795;SDS011;1913;50.660;7.834;2023-03-23T05:38:41;2.90;;;2.60;;
3795;SDS011;1913;50.660;7.834;2023-03-23T05:41:10;2.70;;;2.50;;
3795;SDS011;1913;50.660;7.834;2023-03-23T05:43:39;7.77;;;3.03;;
3795;SDS011;1913;50.660;7.834;2023-03-23T05:46:05;3.53;;;2.70;;
3795;SDS011;1913;50.660;7.834;2023-03-23T05:48:30;5.40;;;3.10;;
3795;SDS011;1913;50.660;7.834;2023-03-23T05:50:56;3.10;;;2.77;;
3795;SDS011;1913;50.660;7.834;2023-03-23T05:53:21;4.00;;;2.93;;
3795;SDS011;1913;50.660;7.834;2023-03-23T05:55:48;5.90;;;3.10;;
3795;SDS011;1913;50.660;7.834;2023-03-23T05:58:13;4.30;;;3.20;;
3795;SDS011;1913;50.660;7.834;2023-03-23T06:00:39;3.30;;;2.70;;
3795;SDS011;1913;50.660;7.834;2023-03-23T06:03:04;4.13;;;2.87;;
3795;SDS011;1913;50.660;7.834;2023-03-23T06:05:30;6.00;;;2.73;;
3795;SDS011;1913;50.660;7.834;2023-03-23T06:07:57;3.10;;;2.83;;
3795;SDS011;1913;50.660;7.834;2023-03-23T06:10:24;2.73;;;2.50;;
3795;SDS011;1913;50.660;7.834;2023-03-23T06:12:49;2.77;;;2.57;;
3795;SDS011;1913;50.660;7.834;2023-03-23T06:15:16;3.27;;;2.73;;
3795;SDS011;1913;50.660;7.834;2023-03-23T06:17:42;3.13;;;2.50;;
3795;SDS011;1913;50.660;7.834;2023-03-23T06:20:08;3.50;;;2.50;;
3795;SDS011;1913;50.660;7.834;2023-03-23T06:22:38;5.27;;;3.03;;
3795;SDS011;1913;50.660;7.834;2023-03-23T06:25:08;5.37;;;2.70;;
3795;SDS011;1913;50.660;7.834;2023-03-23T06:27:36;6.47;;;2.93;;
3795;SDS011;1913;50.660;7.834;2023-03-23T06:30:02;9.17;;;3.50;;
3795;SDS011;1913;50.660;7.834;2023-03-23T06:32:29;3.37;;;2.70;;
3795;SDS011;1913;50.660;7.834;2023-03-23T06:34:57;3.50;;;2.50;;
3795;SDS011;1913;50.660;7.834;2023-03-23T06:37:22;3.73;;;2.30;;
3795;SDS011;1913;50.660;7.834;2023-03-23T06:39:49;5.50;;;2.80;;
3795;SDS011;1913;50.660;7.834;2023-03-23T06:42:15;3.90;;;2.83;;
3795;SDS011;1913;50.660;7.834;2023-03-23T06:44:40;5.00;;;2.60;;
3795;SDS011;1913;50.660;7.834;2023-03-23T06:47:06;5.27;;;3.20;;
3795;SDS011;1913;50.660;7.834;2023-03-23T06:49:32;3.60;;;2.30;;
3795;SDS011;1913;50.660;7.834;2023-03-23T06:51:58;3.67;;;2.57;;
3795;SDS011;1913;50.660;7.834;2023-03-23T06:54:26;4.50;;;2.50;;
3795;SDS011;1913;50.660;7.834;2023-03-23T06:56:52;5.67;;;2.97;;
3795;SDS011;1913;50.660;7.834;2023-03-23T06:59:18;3.77;;;2.50;;
3795;SDS011;1913;50.660;7.834;2023-03-23T07:01:44;3.47;;;2.37;;
3795;SDS011;1913;50.660;7.834;2023-03-23T07:04:11;3.80;;;2.70;;
3795;SDS011;1913;50.660;7.834;2023-03-23T07:06:37;2.60;;;2.40;;
3795;SDS011;1913;50.660;7.834;2023-03-23T07:09:03;6.57;;;2.73;;
3795;SDS011;1913;50.660;7.834;2023-03-23T07:11:28;3.43;;;2.30;;
3795;SDS011;1913;50.660;7.834;2023-03-23T07:13:54;3.83;;;2.37;;
3795;SDS011;1913;50.660;7.834;2023-03-23T07:16:20;2.90;;;2.40;;
3795;SDS011;1913;50.660;7.834;2023-03-23T07:18:45;4.63;;;2.70;;
3795;SDS011;1913;50.660;7.834;2023-03-23T07:21:11;7.00;;;3.30;;
3795;SDS011;1913;50.660;7.834;2023-03-23T07:23:38;5.37;;;2.50;;
3795;SDS011;1913;50.660;7.834;2023-03-23T07:26:04;5.33;;;2.70;;
3795;SDS011;1913;50.660;7.834;2023-03-23T07:28:33;5.90;;;2.60;;
3795;SDS011;1913;50.660;7.834;2023-03-23T07:30:59;4.93;;;2.60;;
3795;SDS011;1913;50.660;7.834;2023-03-23T07:33:24;4.30;;;2.40;;
3795;SDS011;1913;50.660;7.834;2023-03-23T07:35:51;5.43;;;2.60;;
3795;SDS011;1913;50.660;7.834;2023-03-23T07:38:16;3.30;;;2.33;;
3795;SDS011;1913;50.660;7.834;2023-03-23T07:40:42;3.30;;;2.33;;
3795;SDS011;1913;50.660;7.834;2023-03-23T07:43:08;3.07;;;2.20;;
3795;SDS011;1913;50.660;7.834;2023-03-23T07:45:33;5.00;;;2.50;;
3795;SDS011;1913;50.660;7.834;2023-03-23T07:47:59;2.77;;;2.20;;
3795;SDS011;1913;50.660;7.834;2023-03-23T07:50:25;3.23;;;2.10;;
3795;SDS011;1913;50.660;7.834;2023-03-23T07:52:53;3.50;;;2.33;;
3795;SDS011;1913;50.660;7.834;2023-03-23T07:55:20;4.57;;;2.27;;
3795;SDS011;1913;50.660;7.834;2023-03-23T07:57:46;6.87;;;2.57;;
3795;SDS011;1913;50.660;7.834;2023-03-23T08:00:16;4.10;;;2.20;;
3795;SDS011;1913;50.660;7.834;2023-03-23T08:02:48;6.67;;;2.53;;
3795;SDS011;1913;50.660;7.834;2023-03-23T08:05:18;3.33;;;2.23;;
3795;SDS011;1913;50.660;7.834;2023-03-23T08:07:46;4.33;;;3.17;;
3795;SDS011;1913;50.660;7.834;2023-03-23T08:10:13;4.40;;;2.23;;
3795;SDS011;1913;50.660;7.834;2023-03-23T08:12:40;5.10;;;2.13;;
3795;SDS011;1913;50.660;7.834;2023-03-23T08:15:07;4.10;;;2.27;;
3795;SDS011;1913;50.660;7.834;2023-03-23T08:17:35;5.73;;;2.10;;
3795;SDS011;1913;50.660;7.834;2023-03-23T08:20:01;4.60;;;2.20;;
3795;SDS011;1913;50.660;7.834;2023-03-23T08:22:34;3.43;;;2.13;;
3795;SDS011;1913;50.660;7.834;2023-03-23T08:25:01;3.10;;;2.50;;
3795;SDS011;1913;50.660;7.834;2023-03-23T08:27:28;3.90;;;2.20;;
3795;SDS011;1913;50.660;7.834;2023-03-23T08:29:57;4.40;;;2.40;;
3795;SDS011;1913;50.660;7.834;2023-03-23T08:32:23;4.60;;;2.10;;
3795;SDS011;1913;50.660;7.834;2023-03-23T08:34:49;4.57;;;1.70;;
3795;SDS011;1913;50.660;7.834;2023-03-23T08:37:15;2.80;;;2.20;;
3795;SDS011;1913;50.660;7.834;2023-03-23T08:39:41;3.20;;;2.20;;
3795;SDS011;1913;50.660;7.834;2023-03-23T08:42:11;3.90;;;2.17;;
3795;SDS011;1913;50.660;7.834;2023-03-23T08:44:37;2.97;;;2.00;;
3795;SDS011;1913;50.660;7.834;2023-03-23T08:47:03;4.13;;;2.40;;
3795;SDS011;1913;50.660;7.834;2023-03-23T08:49:30;6.00;;;2.20;;
3795;SDS011;1913;50.660;7.834;2023-03-23T08:51:58;2.43;;;2.00;;
3795;SDS011;1913;50.660;7.834;2023-03-23T08:54:24;2.50;;;2.30;;
3795;SDS011;1913;50.660;7.834;2023-03-23T08:56:49;4.07;;;2.27;;
3795;SDS011;1913;50.660;7.834;2023-03-23T08:59:15;2.97;;;2.07;;
3795;SDS011;1913;50.660;7.834;2023-03-23T09:01:40;5.00;;;2.07;;
3795;SDS011;1913;50.660;7.834;2023-03-23T09:04:06;3.63;;;1.80;;
3795;SDS011;1913;50.660;7.834;2023-03-23T09:06:34;3.00;;;2.00;;
3795;SDS011;1913;50.660;7.834;2023-03-23T09:09:00;5.67;;;2.20;;
3795;SDS011;1913;50.660;7.834;2023-03-23T09:11:27;3.70;;;2.33;;
3795;SDS011;1913;50.660;7.834;2023-03-23T09:13:52;5.10;;;2.23;;
3795;SDS011;1913;50.660;7.834;2023-03-23T09:16:18;2.37;;;2.10;;
3795;SDS011;1913;50.660;7.834;2023-03-23T09:18:43;3.50;;;2.23;;
3795;SDS011;1913;50.660;7.834;2023-03-23T09:21:09;2.57;;;2.10;;
3795;SDS011;1913;50.660;7.834;2023-03-23T09:23:34;4.47;;;2.10;;
3795;SDS011;1913;50.660;7.834;2023-03-23T09:26:00;4.03;;;2.67;;
3795;SDS011;1913;50.660;7.834;2023-03-23T09:28:27;2.73;;;2.40;;
3795;SDS011;1913;50.660;7.834;2023-03-23T09:30:55;7.23;;;2.33;;
3795;SDS011;1913;50.660;7.834;2023-03-23T09:33:23;5.27;;;2.67;;
3795;SDS011;1913;50.660;7.834;2023-03-23T09:35:49;5.13;;;2.63;;
3795;SDS011;1913;50.660;7.834;2023-03-23T09:38:15;6.43;;;2.67;;
3795;SDS011;1913;50.660;7.834;2023-03-23T09:49:15;3.70;;;2.20;;
3795;SDS011;1913;50.660;7.834;2023-03-23T09:57:04;2.77;;;2.20;;
3795;SDS011;1913;50.660;7.834;2023-03-23T09:59:41;4.70;;;2.50;;
3795;SDS011;1913;50.660;7.834;2023-03-23T10:02:12;3.30;;;1.90;;
3795;SDS011;1913;50.660;7.834;2023-03-23T10:04:44;1.97;;;1.80;;
3795;SDS011;1913;50.660;7.834;2023-03-23T10:07:26;3.50;;;2.20;;
3795;SDS011;1913;50.660;7.834;2023-03-23T10:09:53;3.57;;;1.80;;
3795;SDS011;1913;50.660;7.834;2023-03-23T10:12:25;2.87;;;1.80;;
3795;SDS011;1913;50.660;7.834;2023-03-23T10:20:29;1.77;;;1.40;;
3795;SDS011;1913;50.660;7.834;2023-03-23T10:28:21;2.07;;;1.30;;
3795;SDS011;1913;50.660;7.834;2023-03-23T10:30:59;3.30;;;1.50;;
3795;SDS011;1913;50.660;7.834;2023-03-23T10:41:26;1.80;;;1.20;;
3795;SDS011;1913;50.660;7.834;2023-03-23T10:43:52;3.03;;;1.20;;
3795;SDS011;1913;50.660;7.834;2023-03-23T10:48:52;1.33;;;1.20;;
3795;SDS011;1913;50.660;7.834;2023-03-23T10:51:21;2.63;;;1.50;;
3795;SDS011;1913;50.660;7.834;2023-03-23T10:53:51;2.20;;;1.40;;
3795;SDS011;1913;50.660;7.834;2023-03-23T10:56:26;2.50;;;1.40;;
3795;SDS011;1913;50.660;7.834;2023-03-23T10:58:54;1.63;;;1.10;;
3795;SDS011;1913;50.660;7.834;2023-03-23T11:01:32;1.40;;;1.20;;
3795;SDS011;1913;50.660;7.834;2023-03-23T11:04:00;1.33;;;1.00;;
3795;SDS011;1913;50.660;7.834;2023-03-23T11:06:29;1.70;;;1.40;;
3795;SDS011;1913;50.660;7.834;2023-03-23T11:09:00;2.93;;;1.47;;
3795;SDS011;1913;50.660;7.834;2023-03-23T11:11:30;3.10;;;1.60;;
3795;SDS011;1913;50.660;7.834;2023-03-23T11:13:58;6.50;;;1.30;;
3795;SDS011;1913;50.660;7.834;2023-03-23T11:16:30;3.07;;;1.60;;
3795;SDS011;1913;50.660;7.834;2023-03-23T11:18:58;1.40;;;1.30;;
3795;SDS011;1913;50.660;7.834;2023-03-23T11:21:25;1.90;;;1.53;;
3795;SDS011;1913;50.660;7.834;2023-03-23T11:23:58;1.53;;;1.20;;
3795;SDS011;1913;50.660;7.834;2023-03-23T11:26:28;2.30;;;1.60;;
3795;SDS011;1913;50.660;7.834;2023-03-23T11:29:04;2.83;;;1.70;;
3795;SDS011;1913;50.660;7.834;2023-03-23T11:31:44;2.37;;;1.57;;
3795;SDS011;1913;50.660;7.834;2023-03-23T11:36:52;1.70;;;1.43;;
3795;SDS011;1913;50.660;7.834;2023-03-23T11:41:51;1.90;;;1.53;;
3795;SDS011;1913;50.660;7.834;2023-03-23T11:44:19;2.17;;;1.20;;
3795;SDS011;1913;50.660;7.834;2023-03-23T11:46:49;2.67;;;1.90;;
3795;SDS011;1913;50.660;7.834;2023-03-23T11:54:46;3.00;;;1.90;;
3795;SDS011;1913;50.660;7.834;2023-03-23T11:57:19;4.80;;;3.90;;
3795;SDS011;1913;50.660;7.834;2023-03-23T11:59:44;1.73;;;1.50;;
3795;SDS011;1913;50.660;7.834;2023-03-23T12:19:18;3.50;;;1.30;;
3795;SDS011;1913;50.660;7.834;2023-03-23T12:27:34;4.63;;;1.93;;
3795;SDS011;1913;50.660;7.834;2023-03-23T12:35:56;1.90;;;1.40;;
3795;SDS011;1913;50.660;7.834;2023-03-23T12:38:51;2.17;;;1.37;;
3795;SDS011;1913;50.660;7.834;2023-03-23T12:51:42;3.07;;;1.40;;
3795;SDS011;1913;50.660;7.834;2023-03-23T12:57:07;2.90;;;1.40;;
3795;SDS011;1913;50.660;7.834;2023-03-23T13:02:10;2.43;;;1.30;;
3795;SDS011;1913;50.660;7.834;2023-03-23T13:04:49;1.17;;;1.07;;
3795;SDS011;1913;50.660;7.834;2023-03-23T13:07:22;1.87;;;1.20;;
3795;SDS011;1913;50.660;7.834;2023-03-23T13:12:23;1.40;;;1.10;;
3795;SDS011;1913;50.660;7.834;2023-03-23T13:15:00;2.10;;;1.30;;
3795;SDS011;1913;50.660;7.834;2023-03-23T13:20:13;2.70;;;1.80;;
3795;SDS011;1913;50.660;7.834;2023-03-23T13:22:51;1.87;;;1.50;;
3795;SDS011;1913;50.660;7.834;2023-03-23T13:28:04;2.80;;;1.53;;
3795;SDS011;1913;50.660;7.834;2023-03-23T13:30:30;3.30;;;1.60;;
3795;SDS011;1913;50.660;7.834;2023-03-23T13:33:06;1.77;;;1.37;;
3795;SDS011;1913;50.660;7.834;2023-03-23T13:35:37;2.23;;;1.53;;
3795;SDS011;1913;50.660;7.834;2023-03-23T13:38:25;4.90;;;1.70;;
3795;SDS011;1913;50.660;7.834;2023-03-23T13:40:55;1.93;;;1.20;;
3795;SDS011;1913;50.660;7.834;2023-03-23T13:43:33;2.90;;;1.50;;
3795;SDS011;1913;50.660;7.834;2023-03-23T13:48:41;4.03;;;1.70;;
3795;SDS011;1913;50.660;7.834;2023-03-23T13:54:14;1.80;;;1.30;;
3795;SDS011;1913;50.660;7.834;2023-03-23T13:56:55;2.27;;;1.53;;
3795;SDS011;1913;50.660;7.834;2023-03-23T14:01:53;4.80;;;1.70;;
3795;SDS011;1913;50.660;7.834;2023-03-23T14:04:20;4.63;;;1.90;;
3795;SDS011;1913;50.660;7.834;2023-03-23T14:06:47;2.17;;;1.40;;
3795;SDS011;1913;50.660;7.834;2023-03-23T14:09:19;2.57;;;1.70;;
3795;SDS011;1913;50.660;7.834;2023-03-23T14:12:03;3.73;;;1.60;;
3795;SDS011;1913;50.660;7.834;2023-03-23T14:14:40;2.93;;;1.50;;
3795;SDS011;1913;50.660;7.834;2023-03-23T14:19:46;3.33;;;1.80;;
3795;SDS011;1913;50.660;7.834;2023-03-23T14:22:19;4.83;;;1.80;;
3795;SDS011;1913;50.660;7.834;2023-03-23T14:25:08;1.97;;;1.47;;
3795;SDS011;1913;50.660;7.834;2023-03-23T14:27:39;2.83;;;1.63;;
3795;SDS011;1913;50.660;7.834;2023-03-23T14:30:07;6.43;;;1.97;;
3795;SDS011;1913;50.660;7.834;2023-03-23T14:32:55;4.47;;;1.60;;
3795;SDS011;1913;50.660;7.834;2023-03-23T14:35:30;2.63;;;1.60;;
3795;SDS011;1913;50.660;7.834;2023-03-23T14:37:59;4.20;;;1.87;;
3795;SDS011;1913;50.660;7.834;2023-03-23T14:40:26;3.90;;;1.73;;
3795;SDS011;1913;50.660;7.834;2023-03-23T14:42:52;4.80;;;1.60;;
3795;SDS011;1913;50.660;7.834;2023-03-23T14:45:20;3.80;;;1.67;;
3795;SDS011;1913;50.660;7.834;2023-03-23T14:48:00;2.90;;;1.73;;
3795;SDS011;1913;50.660;7.834;2023-03-23T14:50:36;3.73;;;1.77;;
3795;SDS011;1913;50.660;7.834;2023-03-23T14:53:38;2.03;;;1.67;;
3795;SDS011;1913;50.660;7.834;2023-03-23T14:56:03;2.30;;;1.43;;
3795;SDS011;1913;50.660;7.834;2023-03-23T14:58:51;2.53;;;1.70;;
3795;SDS011;1913;50.660;7.834;2023-03-23T15:01:24;4.10;;;1.80;;
3795;SDS011;1913;50.660;7.834;2023-03-23T15:03:57;5.90;;;1.80;;
3795;SDS011;1913;50.660;7.834;2023-03-23T15:06:28;4.60;;;1.63;;
3795;SDS011;1913;50.660;7.834;2023-03-23T15:08:57;2.93;;;1.90;;
3795;SDS011;1913;50.660;7.834;2023-03-23T15:11:31;3.07;;;1.93;;
3795;SDS011;1913;50.660;7.834;2023-03-23T15:14:07;4.17;;;1.60;;
3795;SDS011;1913;50.660;7.834;2023-03-23T15:16:39;4.87;;;1.90;;
3795;SDS011;1913;50.660;7.834;2023-03-23T15:19:17;3.90;;;1.80;;
3795;SDS011;1913;50.660;7.834;2023-03-23T15:26:45;2.50;;;1.60;;
3795;SDS011;1913;50.660;7.834;2023-03-23T15:29:12;1.87;;;1.40;;
3795;SDS011;1913;50.660;7.834;2023-03-23T15:31:48;1.63;;;1.30;;
3795;SDS011;1913;50.660;7.834;2023-03-23T15:34:24;1.90;;;1.70;;
3795;SDS011;1913;50.660;7.834;2023-03-23T15:37:00;3.30;;;1.40;;
3795;SDS011;1913;50.660;7.834;2023-03-23T15:39:28;2.40;;;1.30;;
3795;SDS011;1913;50.660;7.834;2023-03-23T15:41:55;2.07;;;1.43;;
3795;SDS011;1913;50.660;7.834;2023-03-23T15:44:26;4.27;;;1.70;;
3795;SDS011;1913;50.660;7.834;2023-03-23T15:47:16;3.80;;;1.70;;
3795;SDS011;1913;50.660;7.834;2023-03-23T15:49:43;2.60;;;1.47;;
3795;SDS011;1913;50.660;7.834;2023-03-23T15:52:10;3.47;;;1.90;;
3795;SDS011;1913;50.660;7.834;2023-03-23T15:54:37;2.50;;;1.60;;
3795;SDS011;1913;50.660;7.834;2023-03-23T15:57:03;5.47;;;1.70;;
3795;SDS011;1913;50.660;7.834;2023-03-23T15:59:29;3.47;;;1.80;;
3795;SDS011;1913;50.660;7.834;2023-03-23T16:01:55;5.27;;;2.20;;
3795;SDS011;1913;50.660;7.834;2023-03-23T16:04:21;2.53;;;1.70;;
3795;SDS011;1913;50.660;7.834;2023-03-23T16:06:47;3.67;;;1.97;;
3795;SDS011;1913;50.660;7.834;2023-03-23T16:09:16;4.80;;;1.90;;
3795;SDS011;1913;50.660;7.834;2023-03-23T16:11:44;5.30;;;1.70;;
3795;SDS011;1913;50.660;7.834;2023-03-23T16:14:10;2.93;;;1.70;;
3795;SDS011;1913;50.660;7.834;2023-03-23T16:19:08;2.43;;;1.87;;
3795;SDS011;1913;50.660;7.834;2023-03-23T16:21:36;8.47;;;1.90;;
3795;SDS011;1913;50.660;7.834;2023-03-23T16:24:02;5.13;;;1.97;;
3795;SDS011;1913;50.660;7.834;2023-03-23T16:26:27;3.83;;;1.80;;
3795;SDS011;1913;50.660;7.834;2023-03-23T16:28:53;2.77;;;2.13;;
3795;SDS011;1913;50.660;7.834;2023-03-23T16:31:18;2.57;;;2.00;;
3795;SDS011;1913;50.660;7.834;2023-03-23T16:33:44;3.77;;;1.97;;
3795;SDS011;1913;50.660;7.834;2023-03-23T16:36:10;3.00;;;1.73;;
3795;SDS011;1913;50.660;7.834;2023-03-23T16:38:37;4.47;;;2.20;;
3795;SDS011;1913;50.660;7.834;2023-03-23T16:41:02;5.60;;;2.10;;
3795;SDS011;1913;50.660;7.834;2023-03-23T16:43:28;5.70;;;2.20;;
3795;SDS011;1913;50.660;7.834;2023-03-23T16:45:54;5.47;;;2.57;;
3795;SDS011;1913;50.660;7.834;2023-03-23T16:48:21;5.70;;;2.20;;
3795;SDS011;1913;50.660;7.834;2023-03-23T16:50:47;5.93;;;1.90;;
3795;SDS011;1913;50.660;7.834;2023-03-23T16:53:13;6.13;;;2.10;;
3795;SDS011;1913;50.660;7.834;2023-03-23T16:55:42;4.10;;;1.73;;
3795;SDS011;1913;50.660;7.834;2023-03-23T16:58:12;5.00;;;2.13;;
3795;SDS011;1913;50.660;7.834;2023-03-23T17:00:38;4.40;;;2.30;;
3795;SDS011;1913;50.660;7.834;2023-03-23T17:03:05;4.27;;;2.33;;
3795;SDS011;1913;50.660;7.834;2023-03-23T17:05:31;5.23;;;1.87;;
3795;SDS011;1913;50.660;7.834;2023-03-23T17:07:57;4.50;;;1.97;;
3795;SDS011;1913;50.660;7.834;2023-03-23T17:10:24;6.60;;;2.37;;
3795;SDS011;1913;50.660;7.834;2023-03-23T17:12:51;3.87;;;2.23;;
3795;SDS011;1913;50.660;7.834;2023-03-23T17:15:18;6.53;;;2.20;;
3795;SDS011;1913;50.660;7.834;2023-03-23T17:17:44;5.70;;;2.50;;
3795;SDS011;1913;50.660;7.834;2023-03-23T17:20:09;3.77;;;2.27;;
3795;SDS011;1913;50.660;7.834;2023-03-23T17:22:37;6.90;;;2.33;;
3795;SDS011;1913;50.660;7.834;2023-03-23T17:25:03;5.83;;;2.70;;
3795;SDS011;1913;50.660;7.834;2023-03-23T17:27:29;3.63;;;2.13;;
3795;SDS011;1913;50.660;7.834;2023-03-23T17:29:55;11.40;;;2.33;;
3795;SDS011;1913;50.660;7.834;2023-03-23T17:32:20;7.73;;;2.30;;
3795;SDS011;1913;50.660;7.834;2023-03-23T17:34:48;6.77;;;2.30;;
3795;SDS011;1913;50.660;7.834;2023-03-23T17:37:14;5.50;;;2.40;;
3795;SDS011;1913;50.660;7.834;2023-03-23T17:39:39;7.40;;;2.80;;